Space — ZCTI8 — position and weather

sailwx.info

Track history (hours):
 
Tides and Currents Weather Stations Pressure Air Temp Water Temp Dewpoint Dewpoint Depression Visibility Wind Speed Wind Dir Waves Ship Positions

Space

Last reported at 2016-Jul-27 06:28 UTC. Time now 2016-Jul-27 07:52 UTC.
Position N 41°07' E 009°42'.

Length 45 m; draft 2.7 m.

Type: Pleasure craft. MMSI: 319917000.

Date/timePositionNaut miles runAvg speedWind from/ knotsBaromVisibWave heightAir tempDewpointWater temp
2016-Jul-27 06:28N 41°07' E 009°42'1111.6
2016-Jul-27 05:33N 41°06' E 009°56'4911.4
2016-Jul-27 01:14N 41°02' E 011°01'2010.8
2016-Jul-26 23:24N 41°01' E 011°28'107 4.0
2016-Jul-25 20:20N 40°39' E 013°46'1012.6
2016-Jul-25 19:33N 40°36' E 013°58'106 5.2
2016-Jul-24 23:11N 39°03' E 015°05'812.3
2016-Jul-24 22:31N 38°55' E 015°09'8 2.3
2016-Jul-24 19:12N 38°48' E 015°11'7 9.6
2016-Jul-24 18:30N 38°42' E 015°07'4 0.8
2016-Jul-24 14:10N 38°38' E 015°06'0 0.0
2016-Jul-24 12:07N 38°38' E 015°06'0 0.0
2016-Jul-24 07:33N 38°38' E 015°06'0 0.0
2016-Jul-24 03:03N 38°38' E 015°06'0 0.0
2016-Jul-24 02:28N 38°38' E 015°06'0 0.0
2016-Jul-24 00:31N 38°38' E 015°06'0 0.0
2016-Jul-23 23:33N 38°38' E 015°06'13 2.5
2016-Jul-23 18:33N 38°49' E 015°15'1 0.3
2016-Jul-23 16:32N 38°48' E 015°15'1111.0
2016-Jul-23 15:33N 38°40' E 015°06'2 1.6
2016-Jul-23 14:33N 38°38' E 015°06'0 0.0
2016-Jul-23 12:17N 38°38' E 015°06'0 0.0
2016-Jul-23 07:03N 38°38' E 015°06'0 0.0
2016-Jul-23 06:33N 38°38' E 015°06'0 0.0
2016-Jul-23 04:17N 38°38' E 015°06'0 0.0
2016-Jul-23 03:30N 38°38' E 015°06'0 0.0
2016-Jul-23 02:33N 38°38' E 015°06'0 0.0
2016-Jul-22 23:25N 38°38' E 015°06'0 0.0
2016-Jul-22 21:03N 38°38' E 015°06'0 0.0
2016-Jul-22 20:15N 38°38' E 015°06'0 0.0
2016-Jul-22 19:27N 38°38' E 015°06'0 0.0
2016-Jul-22 18:28N 38°38' E 015°06'0 0.0
2016-Jul-22 17:34N 38°38' E 015°06'0 0.0
2016-Jul-22 16:12N 38°38' E 015°06'0 0.0
2016-Jul-22 15:26N 38°38' E 015°06'0 0.0
2016-Jul-22 14:33N 38°38' E 015°06'0 0.0
2016-Jul-22 13:27N 38°38' E 015°06'0 0.0
2016-Jul-22 12:33N 38°38' E 015°06'0 0.0
2016-Jul-22 11:33N 38°38' E 015°06'14 2.8
2016-Jul-22 06:26N 38°53' E 015°06'6112.0
2016-Jul-22 01:22N 39°51' E 014°46'47 3.6
2016-Jul-21 12:21N 40°34' E 014°22'6 3.2
2016-Jul-21 10:29N 40°32' E 014°14'0 0.0
2016-Jul-21 09:26N 40°32' E 014°14'0 0.0
2016-Jul-21 08:32N 40°32' E 014°14'0 0.0
2016-Jul-21 07:17N 40°32' E 014°14'0 0.0
2016-Jul-21 06:29N 40°32' E 014°14'0 0.0
2016-Jul-19 17:17N 40°32' E 014°14'0 0.2
2016-Jul-19 16:33N 40°32' E 014°14'1311.6
2016-Jul-19 15:24N 40°35' E 013°57'1612.4
2016-Jul-19 14:09N 40°41' E 013°38'712.3
2016-Jul-19 13:33N 40°43' E 013°29'1212.3
2016-Jul-19 12:33N 40°47' E 013°13'1212.1
2016-Jul-19 11:32N 40°52' E 012°58'6 0.4
2016-Jul-18 17:33N 40°56' E 012°52'0 0.0
2016-Jul-18 16:33N 40°56' E 012°52'0 0.0
2016-Jul-18 15:33N 40°56' E 012°52'0 0.0
2016-Jul-18 14:33N 40°56' E 012°52'0 0.0
2016-Jul-18 13:33N 40°56' E 012°52'14 2.1
2016-Jul-18 06:33N 41°08' E 012°40'10811.9
2016-Jul-17 21:27N 42°25' E 010°59'2812.1
2016-Jul-17 19:08N 42°43' E 010°30'5 2.5
2016-Jul-17 17:08N 42°46' E 010°24'0 0.6
2016-Jul-17 16:33N 42°45' E 010°24'  
Track history (hours):
 
Tides and Currents Weather Stations Pressure Air Temp Water Temp Dewpoint Dewpoint Depression Visibility Wind Speed Wind Dir Waves Ship Positions

Space

Last reported at 2016-Jul-27 06:28 UTC. Time now 2016-Jul-27 07:52 UTC.
Position N 41°07' E 009°42'.

Length 45 m; draft 2.7 m.

Type: Pleasure craft. MMSI: 319917000.

Date/timePositionNaut miles runAvg speedWind from/ knotsBaromVisibWave heightAir tempDewpointWater temp
2016-Jul-27 06:28N 41°07' E 009°42'1111.6
2016-Jul-27 05:33N 41°06' E 009°56'4911.4
2016-Jul-27 01:14N 41°02' E 011°01'2010.8
2016-Jul-26 23:24N 41°01' E 011°28'107 4.0
2016-Jul-25 20:20N 40°39' E 013°46'1012.6
2016-Jul-25 19:33N 40°36' E 013°58'106 5.2
2016-Jul-24 23:11N 39°03' E 015°05'812.3
2016-Jul-24 22:31N 38°55' E 015°09'8 2.3
2016-Jul-24 19:12N 38°48' E 015°11'7 9.6
2016-Jul-24 18:30N 38°42' E 015°07'4 0.8
2016-Jul-24 14:10N 38°38' E 015°06'0 0.0
2016-Jul-24 12:07N 38°38' E 015°06'0 0.0
2016-Jul-24 07:33N 38°38' E 015°06'0 0.0
2016-Jul-24 03:03N 38°38' E 015°06'0 0.0
2016-Jul-24 02:28N 38°38' E 015°06'0 0.0
2016-Jul-24 00:31N 38°38' E 015°06'0 0.0
2016-Jul-23 23:33N 38°38' E 015°06'13 2.5
2016-Jul-23 18:33N 38°49' E 015°15'1 0.3
2016-Jul-23 16:32N 38°48' E 015°15'1111.0
2016-Jul-23 15:33N 38°40' E 015°06'2 1.6
2016-Jul-23 14:33N 38°38' E 015°06'0 0.0
2016-Jul-23 12:17N 38°38' E 015°06'0 0.0
2016-Jul-23 07:03N 38°38' E 015°06'0 0.0
2016-Jul-23 06:33N 38°38' E 015°06'0 0.0
2016-Jul-23 04:17N 38°38' E 015°06'0 0.0
2016-Jul-23 03:30N 38°38' E 015°06'0 0.0
2016-Jul-23 02:33N 38°38' E 015°06'0 0.0
2016-Jul-22 23:25N 38°38' E 015°06'0 0.0
2016-Jul-22 21:03N 38°38' E 015°06'0 0.0
2016-Jul-22 20:15N 38°38' E 015°06'0 0.0
2016-Jul-22 19:27N 38°38' E 015°06'0 0.0
2016-Jul-22 18:28N 38°38' E 015°06'0 0.0
2016-Jul-22 17:34N 38°38' E 015°06'0 0.0
2016-Jul-22 16:12N 38°38' E 015°06'0 0.0
2016-Jul-22 15:26N 38°38' E 015°06'0 0.0
2016-Jul-22 14:33N 38°38' E 015°06'0 0.0
2016-Jul-22 13:27N 38°38' E 015°06'0 0.0
2016-Jul-22 12:33N 38°38' E 015°06'0 0.0
2016-Jul-22 11:33N 38°38' E 015°06'14 2.8
2016-Jul-22 06:26N 38°53' E 015°06'6112.0
2016-Jul-22 01:22N 39°51' E 014°46'47 3.6
2016-Jul-21 12:21N 40°34' E 014°22'6 3.2
2016-Jul-21 10:29N 40°32' E 014°14'0 0.0
2016-Jul-21 09:26N 40°32' E 014°14'0 0.0
2016-Jul-21 08:32N 40°32' E 014°14'0 0.0
2016-Jul-21 07:17N 40°32' E 014°14'0 0.0
2016-Jul-21 06:29N 40°32' E 014°14'0 0.0
2016-Jul-19 17:17N 40°32' E 014°14'0 0.2
2016-Jul-19 16:33N 40°32' E 014°14'1311.6
2016-Jul-19 15:24N 40°35' E 013°57'1612.4
2016-Jul-19 14:09N 40°41' E 013°38'712.3
2016-Jul-19 13:33N 40°43' E 013°29'1212.3
2016-Jul-19 12:33N 40°47' E 013°13'1212.1
2016-Jul-19 11:32N 40°52' E 012°58'6 0.4
2016-Jul-18 17:33N 40°56' E 012°52'0 0.0
2016-Jul-18 16:33N 40°56' E 012°52'0 0.0
2016-Jul-18 15:33N 40°56' E 012°52'0 0.0
2016-Jul-18 14:33N 40°56' E 012°52'0 0.0
2016-Jul-18 13:33N 40°56' E 012°52'14 2.1
2016-Jul-18 06:33N 41°08' E 012°40'10811.9
2016-Jul-17 21:27N 42°25' E 010°59'2812.1
2016-Jul-17 19:08N 42°43' E 010°30'5 2.5
2016-Jul-17 17:08N 42°46' E 010°24'0 0.6
2016-Jul-17 16:33N 42°45' E 010°24'  

Dump ship's entire track history